sensor_id;sensor_type;location;lat;lon;timestamp;P1;durP1;ratioP1;P2;durP2;ratioP2
40611;SDS011;26317;44.894;20.286;2022-10-16T00:02:12;5.47;;;4.65;;
40611;SDS011;26317;44.894;20.286;2022-10-16T00:04:50;10.80;;;5.40;;
40611;SDS011;26317;44.894;20.286;2022-10-16T00:07:26;7.07;;;4.40;;
40611;SDS011;26317;44.894;20.286;2022-10-16T00:10:05;7.10;;;4.85;;
40611;SDS011;26317;44.894;20.286;2022-10-16T00:12:50;8.32;;;4.82;;
40611;SDS011;26317;44.894;20.286;2022-10-16T00:15:26;7.60;;;4.47;;
40611;SDS011;26317;44.894;20.286;2022-10-16T00:18:09;9.20;;;4.65;;
40611;SDS011;26317;44.894;20.286;2022-10-16T00:21:02;5.50;;;4.30;;
40611;SDS011;26317;44.894;20.286;2022-10-16T00:23:41;6.90;;;5.15;;
40611;SDS011;26317;44.894;20.286;2022-10-16T00:26:19;9.68;;;4.70;;
40611;SDS011;26317;44.894;20.286;2022-10-16T00:28:53;6.45;;;4.43;;
40611;SDS011;26317;44.894;20.286;2022-10-16T00:31:31;7.35;;;4.20;;
40611;SDS011;26317;44.894;20.286;2022-10-16T00:34:09;9.13;;;4.35;;
40611;SDS011;26317;44.894;20.286;2022-10-16T00:36:40;6.60;;;4.70;;
40611;SDS011;26317;44.894;20.286;2022-10-16T00:39:10;6.22;;;4.70;;
40611;SDS011;26317;44.894;20.286;2022-10-16T00:41:46;6.63;;;4.78;;
40611;SDS011;26317;44.894;20.286;2022-10-16T00:47:25;6.80;;;4.63;;
40611;SDS011;26317;44.894;20.286;2022-10-16T00:49:59;10.80;;;4.85;;
40611;SDS011;26317;44.894;20.286;2022-10-16T00:52:43;6.82;;;4.45;;
40611;SDS011;26317;44.894;20.286;2022-10-16T00:55:17;8.50;;;4.38;;
40611;SDS011;26317;44.894;20.286;2022-10-16T00:57:58;9.35;;;4.50;;
40611;SDS011;26317;44.894;20.286;2022-10-16T01:00:34;7.15;;;3.95;;
40611;SDS011;26317;44.894;20.286;2022-10-16T01:03:25;9.45;;;4.43;;
40611;SDS011;26317;44.894;20.286;2022-10-16T01:06:13;6.47;;;4.35;;
40611;SDS011;26317;44.894;20.286;2022-10-16T01:09:08;4.30;;;3.08;;
40611;SDS011;26317;44.894;20.286;2022-10-16T01:17:37;7.68;;;4.00;;
40611;SDS011;26317;44.894;20.286;2022-10-16T01:20:29;6.00;;;4.00;;
40611;SDS011;26317;44.894;20.286;2022-10-16T01:23:25;6.90;;;3.50;;
40611;SDS011;26317;44.894;20.286;2022-10-16T01:26:20;7.38;;;4.50;;
40611;SDS011;26317;44.894;20.286;2022-10-16T01:29:15;7.63;;;3.92;;
40611;SDS011;26317;44.894;20.286;2022-10-16T01:31:58;8.05;;;3.58;;
40611;SDS011;26317;44.894;20.286;2022-10-16T01:34:44;7.18;;;4.28;;
40611;SDS011;26317;44.894;20.286;2022-10-16T01:37:22;6.25;;;4.53;;
40611;SDS011;26317;44.894;20.286;2022-10-16T01:40:19;6.95;;;4.72;;
40611;SDS011;26317;44.894;20.286;2022-10-16T01:42:57;5.43;;;4.40;;
40611;SDS011;26317;44.894;20.286;2022-10-16T01:45:40;7.82;;;4.53;;
40611;SDS011;26317;44.894;20.286;2022-10-16T01:48:12;4.70;;;3.50;;
40611;SDS011;26317;44.894;20.286;2022-10-16T01:50:52;9.77;;;4.10;;
40611;SDS011;26317;44.894;20.286;2022-10-16T01:53:30;6.13;;;4.20;;
40611;SDS011;26317;44.894;20.286;2022-10-16T01:56:05;7.18;;;4.15;;
40611;SDS011;26317;44.894;20.286;2022-10-16T01:58:47;7.90;;;4.20;;
40611;SDS011;26317;44.894;20.286;2022-10-16T02:01:40;12.52;;;4.60;;
40611;SDS011;26317;44.894;20.286;2022-10-16T02:04:18;7.38;;;4.15;;
40611;SDS011;26317;44.894;20.286;2022-10-16T02:06:53;4.65;;;3.95;;
40611;SDS011;26317;44.894;20.286;2022-10-16T02:09:27;6.20;;;4.35;;
40611;SDS011;26317;44.894;20.286;2022-10-16T02:12:21;12.05;;;4.57;;
40611;SDS011;26317;44.894;20.286;2022-10-16T02:15:02;5.95;;;4.45;;
40611;SDS011;26317;44.894;20.286;2022-10-16T02:17:54;9.27;;;4.88;;
40611;SDS011;26317;44.894;20.286;2022-10-16T02:20:32;5.13;;;4.20;;
40611;SDS011;26317;44.894;20.286;2022-10-16T02:23:19;9.00;;;4.20;;
40611;SDS011;26317;44.894;20.286;2022-10-16T02:26:04;7.05;;;4.15;;
40611;SDS011;26317;44.894;20.286;2022-10-16T02:28:51;8.75;;;4.50;;
40611;SDS011;26317;44.894;20.286;2022-10-16T02:31:38;6.00;;;3.88;;
40611;SDS011;26317;44.894;20.286;2022-10-16T02:34:39;8.77;;;4.68;;
40611;SDS011;26317;44.894;20.286;2022-10-16T02:37:22;5.88;;;3.88;;
40611;SDS011;26317;44.894;20.286;2022-10-16T02:39:59;6.30;;;4.35;;
40611;SDS011;26317;44.894;20.286;2022-10-16T02:42:36;6.40;;;4.60;;
40611;SDS011;26317;44.894;20.286;2022-10-16T02:45:10;7.10;;;4.40;;
40611;SDS011;26317;44.894;20.286;2022-10-16T02:47:47;8.13;;;5.10;;
40611;SDS011;26317;44.894;20.286;2022-10-16T02:50:25;5.95;;;3.80;;
40611;SDS011;26317;44.894;20.286;2022-10-16T02:53:01;7.22;;;4.38;;
40611;SDS011;26317;44.894;20.286;2022-10-16T02:55:36;4.90;;;3.95;;
40611;SDS011;26317;44.894;20.286;2022-10-16T03:00:44;6.50;;;4.43;;
40611;SDS011;26317;44.894;20.286;2022-10-16T03:03:19;7.53;;;4.53;;
40611;SDS011;26317;44.894;20.286;2022-10-16T03:05:55;5.15;;;4.18;;
40611;SDS011;26317;44.894;20.286;2022-10-16T03:08:26;9.10;;;5.05;;
40611;SDS011;26317;44.894;20.286;2022-10-16T03:11:02;8.32;;;5.28;;
40611;SDS011;26317;44.894;20.286;2022-10-16T03:13:41;5.20;;;4.70;;
40611;SDS011;26317;44.894;20.286;2022-10-16T03:18:47;7.82;;;5.05;;
40611;SDS011;26317;44.894;20.286;2022-10-16T03:21:29;6.13;;;4.65;;
40611;SDS011;26317;44.894;20.286;2022-10-16T03:26:43;12.15;;;5.43;;
40611;SDS011;26317;44.894;20.286;2022-10-16T03:29:15;8.13;;;5.40;;
40611;SDS011;26317;44.894;20.286;2022-10-16T03:31:50;6.85;;;4.63;;
40611;SDS011;26317;44.894;20.286;2022-10-16T03:34:24;7.75;;;4.85;;
40611;SDS011;26317;44.894;20.286;2022-10-16T03:36:57;12.75;;;5.05;;
40611;SDS011;26317;44.894;20.286;2022-10-16T03:39:28;6.10;;;5.40;;
40611;SDS011;26317;44.894;20.286;2022-10-16T03:42:08;5.72;;;4.60;;
40611;SDS011;26317;44.894;20.286;2022-10-16T03:44:57;9.23;;;5.30;;
40611;SDS011;26317;44.894;20.286;2022-10-16T03:47:36;8.20;;;5.00;;
40611;SDS011;26317;44.894;20.286;2022-10-16T03:53:08;6.13;;;4.80;;
40611;SDS011;26317;44.894;20.286;2022-10-16T03:55:46;9.10;;;5.43;;
40611;SDS011;26317;44.894;20.286;2022-10-16T03:58:21;9.38;;;5.35;;
40611;SDS011;26317;44.894;20.286;2022-10-16T04:00:57;14.07;;;5.47;;
40611;SDS011;26317;44.894;20.286;2022-10-16T04:03:29;12.25;;;4.93;;
40611;SDS011;26317;44.894;20.286;2022-10-16T04:06:07;10.95;;;6.13;;
40611;SDS011;26317;44.894;20.286;2022-10-16T04:08:44;11.18;;;5.20;;
40611;SDS011;26317;44.894;20.286;2022-10-16T04:11:20;11.15;;;5.78;;
40611;SDS011;26317;44.894;20.286;2022-10-16T04:13:54;10.07;;;6.03;;
40611;SDS011;26317;44.894;20.286;2022-10-16T04:16:28;9.07;;;6.50;;
40611;SDS011;26317;44.894;20.286;2022-10-16T04:19:01;6.07;;;5.13;;
40611;SDS011;26317;44.894;20.286;2022-10-16T04:21:49;8.88;;;5.97;;
40611;SDS011;26317;44.894;20.286;2022-10-16T04:24:28;9.65;;;5.22;;
40611;SDS011;26317;44.894;20.286;2022-10-16T04:26:59;8.82;;;6.20;;
40611;SDS011;26317;44.894;20.286;2022-10-16T04:29:31;13.02;;;6.70;;
40611;SDS011;26317;44.894;20.286;2022-10-16T04:32:07;7.85;;;5.68;;
40611;SDS011;26317;44.894;20.286;2022-10-16T04:34:50;8.18;;;6.32;;
40611;SDS011;26317;44.894;20.286;2022-10-16T04:37:28;11.38;;;6.03;;
40611;SDS011;26317;44.894;20.286;2022-10-16T04:40:02;11.52;;;6.05;;
40611;SDS011;26317;44.894;20.286;2022-10-16T04:42:39;10.32;;;6.25;;
40611;SDS011;26317;44.894;20.286;2022-10-16T04:47:49;10.07;;;5.93;;
40611;SDS011;26317;44.894;20.286;2022-10-16T04:50:22;11.43;;;6.13;;
40611;SDS011;26317;44.894;20.286;2022-10-16T04:53:08;11.32;;;6.78;;
40611;SDS011;26317;44.894;20.286;2022-10-16T04:55:55;7.72;;;5.90;;
40611;SDS011;26317;44.894;20.286;2022-10-16T04:58:30;11.07;;;7.13;;
40611;SDS011;26317;44.894;20.286;2022-10-16T05:01:02;8.95;;;6.53;;
40611;SDS011;26317;44.894;20.286;2022-10-16T05:03:42;9.43;;;7.20;;
40611;SDS011;26317;44.894;20.286;2022-10-16T05:06:16;13.48;;;8.00;;
40611;SDS011;26317;44.894;20.286;2022-10-16T05:08:46;7.93;;;6.63;;
40611;SDS011;26317;44.894;20.286;2022-10-16T05:11:21;11.30;;;7.25;;
40611;SDS011;26317;44.894;20.286;2022-10-16T05:13:56;9.05;;;7.20;;
40611;SDS011;26317;44.894;20.286;2022-10-16T05:16:31;9.10;;;7.50;;
40611;SDS011;26317;44.894;20.286;2022-10-16T05:19:06;12.30;;;7.82;;
40611;SDS011;26317;44.894;20.286;2022-10-16T05:21:48;10.60;;;6.93;;
40611;SDS011;26317;44.894;20.286;2022-10-16T05:24:35;12.63;;;6.13;;
40611;SDS011;26317;44.894;20.286;2022-10-16T05:27:15;9.77;;;6.32;;
40611;SDS011;26317;44.894;20.286;2022-10-16T05:29:52;11.35;;;6.10;;
40611;SDS011;26317;44.894;20.286;2022-10-16T05:32:29;12.07;;;6.13;;
40611;SDS011;26317;44.894;20.286;2022-10-16T05:35:00;12.55;;;6.25;;
40611;SDS011;26317;44.894;20.286;2022-10-16T05:37:40;8.75;;;6.25;;
40611;SDS011;26317;44.894;20.286;2022-10-16T05:40:14;9.65;;;6.15;;
40611;SDS011;26317;44.894;20.286;2022-10-16T05:43:00;10.77;;;6.60;;
40611;SDS011;26317;44.894;20.286;2022-10-16T05:45:45;10.00;;;5.85;;
40611;SDS011;26317;44.894;20.286;2022-10-16T05:48:23;13.10;;;7.22;;
40611;SDS011;26317;44.894;20.286;2022-10-16T05:50:56;7.13;;;5.85;;
40611;SDS011;26317;44.894;20.286;2022-10-16T05:53:40;8.75;;;5.93;;
40611;SDS011;26317;44.894;20.286;2022-10-16T05:56:15;7.57;;;6.60;;
40611;SDS011;26317;44.894;20.286;2022-10-16T05:58:48;7.82;;;6.32;;
40611;SDS011;26317;44.894;20.286;2022-10-16T06:01:21;11.43;;;7.47;;
40611;SDS011;26317;44.894;20.286;2022-10-16T06:03:53;10.85;;;6.43;;
40611;SDS011;26317;44.894;20.286;2022-10-16T06:06:26;15.55;;;7.80;;
40611;SDS011;26317;44.894;20.286;2022-10-16T06:09:03;12.05;;;6.97;;
40611;SDS011;26317;44.894;20.286;2022-10-16T06:11:35;11.40;;;7.40;;
40611;SDS011;26317;44.894;20.286;2022-10-16T06:14:20;11.82;;;7.22;;
40611;SDS011;26317;44.894;20.286;2022-10-16T06:16:53;11.15;;;7.65;;
40611;SDS011;26317;44.894;20.286;2022-10-16T06:19:33;10.97;;;7.03;;
40611;SDS011;26317;44.894;20.286;2022-10-16T06:22:05;12.40;;;7.28;;
40611;SDS011;26317;44.894;20.286;2022-10-16T06:24:42;10.90;;;7.07;;
40611;SDS011;26317;44.894;20.286;2022-10-16T06:27:16;11.25;;;7.10;;
40611;SDS011;26317;44.894;20.286;2022-10-16T06:30:10;7.82;;;6.68;;
40611;SDS011;26317;44.894;20.286;2022-10-16T06:32:45;18.02;;;7.63;;
40611;SDS011;26317;44.894;20.286;2022-10-16T06:35:23;10.52;;;7.93;;
40611;SDS011;26317;44.894;20.286;2022-10-16T06:38:03;16.33;;;7.40;;
40611;SDS011;26317;44.894;20.286;2022-10-16T06:40:34;10.85;;;6.60;;
40611;SDS011;26317;44.894;20.286;2022-10-16T06:43:10;10.95;;;6.57;;
40611;SDS011;26317;44.894;20.286;2022-10-16T06:45:57;10.20;;;6.28;;
40611;SDS011;26317;44.894;20.286;2022-10-16T06:48:30;15.35;;;6.60;;
40611;SDS011;26317;44.894;20.286;2022-10-16T06:51:08;7.55;;;5.53;;
40611;SDS011;26317;44.894;20.286;2022-10-16T06:53:54;11.57;;;6.68;;
40611;SDS011;26317;44.894;20.286;2022-10-16T06:56:41;11.73;;;6.22;;
40611;SDS011;26317;44.894;20.286;2022-10-16T06:59:10;14.35;;;5.90;;
40611;SDS011;26317;44.894;20.286;2022-10-16T07:02:00;11.82;;;6.20;;
40611;SDS011;26317;44.894;20.286;2022-10-16T07:04:42;11.48;;;6.00;;
40611;SDS011;26317;44.894;20.286;2022-10-16T07:07:18;10.15;;;5.30;;
40611;SDS011;26317;44.894;20.286;2022-10-16T07:09:51;8.90;;;5.47;;
40611;SDS011;26317;44.894;20.286;2022-10-16T07:12:26;8.35;;;4.95;;
40611;SDS011;26317;44.894;20.286;2022-10-16T07:15:12;10.73;;;5.20;;
40611;SDS011;26317;44.894;20.286;2022-10-16T07:17:49;5.95;;;4.38;;
40611;SDS011;26317;44.894;20.286;2022-10-16T07:20:20;10.57;;;5.32;;
40611;SDS011;26317;44.894;20.286;2022-10-16T07:23:01;8.48;;;4.75;;
40611;SDS011;26317;44.894;20.286;2022-10-16T07:25:41;8.00;;;4.30;;
40611;SDS011;26317;44.894;20.286;2022-10-16T07:28:18;10.40;;;5.18;;
40611;SDS011;26317;44.894;20.286;2022-10-16T07:30:55;7.38;;;4.45;;
40611;SDS011;26317;44.894;20.286;2022-10-16T07:33:50;6.10;;;4.32;;
40611;SDS011;26317;44.894;20.286;2022-10-16T07:36:24;11.20;;;4.65;;
40611;SDS011;26317;44.894;20.286;2022-10-16T07:39:03;10.63;;;7.15;;
40611;SDS011;26317;44.894;20.286;2022-10-16T07:41:35;7.50;;;5.93;;
40611;SDS011;26317;44.894;20.286;2022-10-16T07:44:15;9.57;;;6.68;;
40611;SDS011;26317;44.894;20.286;2022-10-16T07:46:46;9.50;;;6.25;;
40611;SDS011;26317;44.894;20.286;2022-10-16T07:49:33;10.65;;;7.90;;
40611;SDS011;26317;44.894;20.286;2022-10-16T07:52:05;10.70;;;5.65;;
40611;SDS011;26317;44.894;20.286;2022-10-16T07:54:36;8.23;;;4.90;;
40611;SDS011;26317;44.894;20.286;2022-10-16T07:57:10;7.75;;;5.20;;
40611;SDS011;26317;44.894;20.286;2022-10-16T07:59:46;7.55;;;4.68;;
40611;SDS011;26317;44.894;20.286;2022-10-16T08:02:15;8.50;;;5.13;;
40611;SDS011;26317;44.894;20.286;2022-10-16T08:04:57;7.97;;;5.15;;
40611;SDS011;26317;44.894;20.286;2022-10-16T08:07:41;7.93;;;5.32;;
40611;SDS011;26317;44.894;20.286;2022-10-16T08:10:17;10.90;;;5.72;;
40611;SDS011;26317;44.894;20.286;2022-10-16T08:12:54;5.82;;;4.97;;
40611;SDS011;26317;44.894;20.286;2022-10-16T08:15:24;5.60;;;4.30;;
40611;SDS011;26317;44.894;20.286;2022-10-16T08:20:44;6.30;;;4.25;;
40611;SDS011;26317;44.894;20.286;2022-10-16T08:23:14;10.13;;;5.10;;
40611;SDS011;26317;44.894;20.286;2022-10-16T08:25:52;4.95;;;4.13;;
40611;SDS011;26317;44.894;20.286;2022-10-16T08:28:35;9.95;;;5.32;;
40611;SDS011;26317;44.894;20.286;2022-10-16T08:31:09;10.05;;;5.20;;
40611;SDS011;26317;44.894;20.286;2022-10-16T08:33:46;7.93;;;4.55;;
40611;SDS011;26317;44.894;20.286;2022-10-16T08:36:35;5.38;;;4.78;;
40611;SDS011;26317;44.894;20.286;2022-10-16T08:39:07;7.72;;;4.95;;
40611;SDS011;26317;44.894;20.286;2022-10-16T08:45:13;6.95;;;4.68;;
40611;SDS011;26317;44.894;20.286;2022-10-16T08:48:06;8.63;;;5.35;;
40611;SDS011;26317;44.894;20.286;2022-10-16T08:50:50;5.55;;;3.88;;
40611;SDS011;26317;44.894;20.286;2022-10-16T08:53:33;8.93;;;5.15;;
40611;SDS011;26317;44.894;20.286;2022-10-16T08:56:23;6.97;;;4.88;;
40611;SDS011;26317;44.894;20.286;2022-10-16T09:01:54;9.10;;;5.05;;
40611;SDS011;26317;44.894;20.286;2022-10-16T09:04:51;8.75;;;4.85;;
40611;SDS011;26317;44.894;20.286;2022-10-16T09:07:39;6.18;;;4.30;;
40611;SDS011;26317;44.894;20.286;2022-10-16T09:13:11;7.45;;;4.65;;
40611;SDS011;26317;44.894;20.286;2022-10-16T09:15:56;6.10;;;4.68;;
40611;SDS011;26317;44.894;20.286;2022-10-16T09:18:51;9.98;;;4.53;;
40611;SDS011;26317;44.894;20.286;2022-10-16T09:21:40;7.78;;;5.32;;
40611;SDS011;26317;44.894;20.286;2022-10-16T09:24:15;10.73;;;5.25;;
40611;SDS011;26317;44.894;20.286;2022-10-16T09:27:14;8.80;;;4.85;;
40611;SDS011;26317;44.894;20.286;2022-10-16T09:29:51;5.28;;;4.47;;
40611;SDS011;26317;44.894;20.286;2022-10-16T09:32:23;6.63;;;4.57;;
40611;SDS011;26317;44.894;20.286;2022-10-16T09:35:00;7.88;;;4.50;;
40611;SDS011;26317;44.894;20.286;2022-10-16T09:37:37;7.10;;;5.30;;
40611;SDS011;26317;44.894;20.286;2022-10-16T09:40:13;6.93;;;5.07;;
40611;SDS011;26317;44.894;20.286;2022-10-16T09:43:19;12.20;;;5.47;;
40611;SDS011;26317;44.894;20.286;2022-10-16T09:45:55;6.85;;;5.63;;
40611;SDS011;26317;44.894;20.286;2022-10-16T09:48:36;6.00;;;4.65;;
40611;SDS011;26317;44.894;20.286;2022-10-16T09:51:30;9.10;;;5.25;;
40611;SDS011;26317;44.894;20.286;2022-10-16T09:54:14;8.43;;;5.15;;
40611;SDS011;26317;44.894;20.286;2022-10-16T09:57:03;8.68;;;6.20;;
40611;SDS011;26317;44.894;20.286;2022-10-16T10:02:35;11.55;;;5.28;;
40611;SDS011;26317;44.894;20.286;2022-10-16T10:05:18;7.78;;;4.97;;
40611;SDS011;26317;44.894;20.286;2022-10-16T10:07:57;10.77;;;5.85;;
40611;SDS011;26317;44.894;20.286;2022-10-16T10:10:37;5.82;;;4.60;;
40611;SDS011;26317;44.894;20.286;2022-10-16T10:13:17;7.55;;;4.10;;
40611;SDS011;26317;44.894;20.286;2022-10-16T10:16:12;11.70;;;5.18;;
40611;SDS011;26317;44.894;20.286;2022-10-16T10:18:58;6.90;;;4.80;;
40611;SDS011;26317;44.894;20.286;2022-10-16T10:21:34;15.95;;;5.55;;
40611;SDS011;26317;44.894;20.286;2022-10-16T10:24:17;8.80;;;5.45;;
40611;SDS011;26317;44.894;20.286;2022-10-16T10:26:54;6.55;;;5.20;;
40611;SDS011;26317;44.894;20.286;2022-10-16T10:29:41;8.57;;;5.82;;
40611;SDS011;26317;44.894;20.286;2022-10-16T10:32:31;10.63;;;4.60;;
40611;SDS011;26317;44.894;20.286;2022-10-16T10:35:25;17.55;;;6.72;;
40611;SDS011;26317;44.894;20.286;2022-10-16T10:38:25;9.63;;;5.15;;
40611;SDS011;26317;44.894;20.286;2022-10-16T10:41:14;7.93;;;5.22;;
40611;SDS011;26317;44.894;20.286;2022-10-16T10:44:14;8.75;;;5.07;;
40611;SDS011;26317;44.894;20.286;2022-10-16T10:49:57;8.70;;;5.53;;
40611;SDS011;26317;44.894;20.286;2022-10-16T10:55:39;9.27;;;5.50;;
40611;SDS011;26317;44.894;20.286;2022-10-16T11:07:32;11.35;;;6.07;;
40611;SDS011;26317;44.894;20.286;2022-10-16T11:10:12;7.03;;;5.82;;
40611;SDS011;26317;44.894;20.286;2022-10-16T11:12:55;7.30;;;5.45;;
40611;SDS011;26317;44.894;20.286;2022-10-16T11:15:32;13.70;;;5.60;;
40611;SDS011;26317;44.894;20.286;2022-10-16T11:18:20;8.05;;;5.97;;
40611;SDS011;26317;44.894;20.286;2022-10-16T11:21:04;8.20;;;6.57;;
40611;SDS011;26317;44.894;20.286;2022-10-16T11:23:44;6.45;;;5.68;;
40611;SDS011;26317;44.894;20.286;2022-10-16T11:26:30;7.00;;;5.95;;
40611;SDS011;26317;44.894;20.286;2022-10-16T11:29:16;7.90;;;6.38;;
40611;SDS011;26317;44.894;20.286;2022-10-16T11:32:00;11.32;;;6.15;;
40611;SDS011;26317;44.894;20.286;2022-10-16T11:34:40;10.00;;;5.85;;
40611;SDS011;26317;44.894;20.286;2022-10-16T11:40:38;9.98;;;5.72;;
40611;SDS011;26317;44.894;20.286;2022-10-16T11:43:27;22.80;;;17.35;;
40611;SDS011;26317;44.894;20.286;2022-10-16T11:46:16;14.50;;;7.07;;
40611;SDS011;26317;44.894;20.286;2022-10-16T11:49:00;8.90;;;6.57;;
40611;SDS011;26317;44.894;20.286;2022-10-16T11:51:41;14.05;;;7.35;;
40611;SDS011;26317;44.894;20.286;2022-10-16T11:54:25;8.27;;;6.80;;
40611;SDS011;26317;44.894;20.286;2022-10-16T11:57:07;9.95;;;6.47;;
40611;SDS011;26317;44.894;20.286;2022-10-16T11:59:42;8.23;;;5.63;;
40611;SDS011;26317;44.894;20.286;2022-10-16T12:02:41;10.75;;;5.95;;
40611;SDS011;26317;44.894;20.286;2022-10-16T12:05:27;10.82;;;6.40;;
40611;SDS011;26317;44.894;20.286;2022-10-16T12:08:08;15.98;;;12.60;;
40611;SDS011;26317;44.894;20.286;2022-10-16T12:11:05;12.10;;;7.13;;
40611;SDS011;26317;44.894;20.286;2022-10-16T12:14:06;7.55;;;6.18;;
40611;SDS011;26317;44.894;20.286;2022-10-16T12:17:23;7.75;;;5.18;;
40611;SDS011;26317;44.894;20.286;2022-10-16T12:20:21;9.57;;;6.65;;
40611;SDS011;26317;44.894;20.286;2022-10-16T12:23:00;14.13;;;7.32;;
40611;SDS011;26317;44.894;20.286;2022-10-16T12:25:34;11.82;;;6.93;;
40611;SDS011;26317;44.894;20.286;2022-10-16T12:28:27;11.68;;;8.00;;
40611;SDS011;26317;44.894;20.286;2022-10-16T12:31:00;8.07;;;6.82;;
40611;SDS011;26317;44.894;20.286;2022-10-16T12:33:42;10.18;;;7.22;;
40611;SDS011;26317;44.894;20.286;2022-10-16T12:36:28;8.77;;;6.30;;
40611;SDS011;26317;44.894;20.286;2022-10-16T12:39:21;8.53;;;5.57;;
40611;SDS011;26317;44.894;20.286;2022-10-16T12:42:20;9.60;;;6.72;;
40611;SDS011;26317;44.894;20.286;2022-10-16T12:45:58;9.10;;;5.95;;
40611;SDS011;26317;44.894;20.286;2022-10-16T12:48:37;8.27;;;5.78;;
40611;SDS011;26317;44.894;20.286;2022-10-16T12:51:42;9.05;;;6.15;;
40611;SDS011;26317;44.894;20.286;2022-10-16T12:54:25;8.98;;;5.88;;
40611;SDS011;26317;44.894;20.286;2022-10-16T12:57:13;8.07;;;6.18;;
40611;SDS011;26317;44.894;20.286;2022-10-16T13:00:08;10.05;;;7.22;;
40611;SDS011;26317;44.894;20.286;2022-10-16T13:06:22;8.23;;;5.53;;
40611;SDS011;26317;44.894;20.286;2022-10-16T13:09:12;8.82;;;5.90;;
40611;SDS011;26317;44.894;20.286;2022-10-16T13:15:25;7.63;;;5.65;;
40611;SDS011;26317;44.894;20.286;2022-10-16T13:18:06;8.27;;;6.57;;
40611;SDS011;26317;44.894;20.286;2022-10-16T13:21:06;9.68;;;6.40;;
40611;SDS011;26317;44.894;20.286;2022-10-16T13:23:51;9.23;;;5.05;;
40611;SDS011;26317;44.894;20.286;2022-10-16T13:26:39;9.30;;;5.55;;
40611;SDS011;26317;44.894;20.286;2022-10-16T13:29:16;10.07;;;6.10;;
40611;SDS011;26317;44.894;20.286;2022-10-16T13:31:50;11.43;;;4.90;;
40611;SDS011;26317;44.894;20.286;2022-10-16T13:34:30;7.82;;;5.65;;
40611;SDS011;26317;44.894;20.286;2022-10-16T13:37:15;7.85;;;5.55;;
40611;SDS011;26317;44.894;20.286;2022-10-16T13:40:05;9.57;;;5.93;;
40611;SDS011;26317;44.894;20.286;2022-10-16T13:43:13;8.30;;;5.45;;
40611;SDS011;26317;44.894;20.286;2022-10-16T13:45:55;11.70;;;6.25;;
40611;SDS011;26317;44.894;20.286;2022-10-16T13:48:34;10.63;;;6.18;;
40611;SDS011;26317;44.894;20.286;2022-10-16T13:51:18;11.52;;;6.35;;
40611;SDS011;26317;44.894;20.286;2022-10-16T13:56:49;11.48;;;6.97;;
40611;SDS011;26317;44.894;20.286;2022-10-16T13:59:38;9.50;;;6.38;;
40611;SDS011;26317;44.894;20.286;2022-10-16T14:02:20;9.80;;;6.43;;
40611;SDS011;26317;44.894;20.286;2022-10-16T14:05:07;7.32;;;6.45;;
40611;SDS011;26317;44.894;20.286;2022-10-16T14:10:38;10.93;;;5.80;;
40611;SDS011;26317;44.894;20.286;2022-10-16T14:13:13;9.38;;;6.20;;
40611;SDS011;26317;44.894;20.286;2022-10-16T14:15:57;8.93;;;5.60;;
40611;SDS011;26317;44.894;20.286;2022-10-16T14:18:38;15.80;;;5.97;;
40611;SDS011;26317;44.894;20.286;2022-10-16T14:21:15;8.70;;;5.50;;
40611;SDS011;26317;44.894;20.286;2022-10-16T14:23:54;8.30;;;5.43;;
40611;SDS011;26317;44.894;20.286;2022-10-16T14:26:44;8.75;;;5.93;;
40611;SDS011;26317;44.894;20.286;2022-10-16T14:29:24;13.00;;;6.03;;
40611;SDS011;26317;44.894;20.286;2022-10-16T14:31:57;7.90;;;5.75;;
40611;SDS011;26317;44.894;20.286;2022-10-16T14:34:53;8.07;;;6.22;;
40611;SDS011;26317;44.894;20.286;2022-10-16T14:37:36;9.00;;;5.78;;
40611;SDS011;26317;44.894;20.286;2022-10-16T14:40:13;7.45;;;5.50;;
40611;SDS011;26317;44.894;20.286;2022-10-16T14:43:00;7.75;;;5.57;;
40611;SDS011;26317;44.894;20.286;2022-10-16T14:45:37;9.40;;;5.50;;
40611;SDS011;26317;44.894;20.286;2022-10-16T14:48:14;11.00;;;5.30;;
40611;SDS011;26317;44.894;20.286;2022-10-16T14:50:52;11.05;;;5.75;;
40611;SDS011;26317;44.894;20.286;2022-10-16T14:53:35;12.07;;;6.47;;
40611;SDS011;26317;44.894;20.286;2022-10-16T14:56:21;9.45;;;6.03;;
40611;SDS011;26317;44.894;20.286;2022-10-16T14:59:03;13.63;;;6.25;;
40611;SDS011;26317;44.894;20.286;2022-10-16T15:01:35;8.30;;;5.63;;
40611;SDS011;26317;44.894;20.286;2022-10-16T15:04:14;11.02;;;6.25;;
40611;SDS011;26317;44.894;20.286;2022-10-16T15:06:44;10.85;;;6.95;;
40611;SDS011;26317;44.894;20.286;2022-10-16T15:09:34;12.57;;;7.32;;
40611;SDS011;26317;44.894;20.286;2022-10-16T15:12:09;10.68;;;6.65;;
40611;SDS011;26317;44.894;20.286;2022-10-16T15:14:42;9.27;;;6.60;;
40611;SDS011;26317;44.894;20.286;2022-10-16T15:17:30;14.45;;;7.47;;
40611;SDS011;26317;44.894;20.286;2022-10-16T15:20:08;10.23;;;7.25;;
40611;SDS011;26317;44.894;20.286;2022-10-16T15:22:41;9.25;;;7.10;;
40611;SDS011;26317;44.894;20.286;2022-10-16T15:25:22;9.82;;;7.20;;
40611;SDS011;26317;44.894;20.286;2022-10-16T15:28:05;11.07;;;6.20;;
40611;SDS011;26317;44.894;20.286;2022-10-16T15:30:48;13.82;;;7.07;;
40611;SDS011;26317;44.894;20.286;2022-10-16T15:33:22;14.48;;;8.88;;
40611;SDS011;26317;44.894;20.286;2022-10-16T15:36:03;20.85;;;11.27;;
40611;SDS011;26317;44.894;20.286;2022-10-16T15:41:16;33.10;;;13.65;;
40611;SDS011;26317;44.894;20.286;2022-10-16T15:43:47;26.83;;;14.03;;
40611;SDS011;26317;44.894;20.286;2022-10-16T15:46:31;23.33;;;11.40;;
40611;SDS011;26317;44.894;20.286;2022-10-16T15:49:08;31.08;;;13.90;;
40611;SDS011;26317;44.894;20.286;2022-10-16T15:51:48;28.98;;;13.70;;
40611;SDS011;26317;44.894;20.286;2022-10-16T15:54:29;27.15;;;13.35;;
40611;SDS011;26317;44.894;20.286;2022-10-16T15:57:03;26.85;;;12.27;;
40611;SDS011;26317;44.894;20.286;2022-10-16T15:59:46;23.80;;;12.05;;
40611;SDS011;26317;44.894;20.286;2022-10-16T16:02:24;21.25;;;11.32;;
40611;SDS011;26317;44.894;20.286;2022-10-16T16:05:00;28.25;;;11.52;;
40611;SDS011;26317;44.894;20.286;2022-10-16T16:07:32;21.38;;;11.18;;
40611;SDS011;26317;44.894;20.286;2022-10-16T16:10:08;19.55;;;11.25;;
40611;SDS011;26317;44.894;20.286;2022-10-16T16:12:45;14.50;;;9.70;;
40611;SDS011;26317;44.894;20.286;2022-10-16T16:15:28;14.23;;;9.52;;
40611;SDS011;26317;44.894;20.286;2022-10-16T16:18:14;12.32;;;8.65;;
40611;SDS011;26317;44.894;20.286;2022-10-16T16:20:50;15.55;;;8.90;;
40611;SDS011;26317;44.894;20.286;2022-10-16T16:23:31;13.65;;;7.78;;
40611;SDS011;26317;44.894;20.286;2022-10-16T16:26:14;13.35;;;8.18;;
40611;SDS011;26317;44.894;20.286;2022-10-16T16:28:53;13.43;;;7.45;;
40611;SDS011;26317;44.894;20.286;2022-10-16T16:31:27;10.98;;;8.27;;
40611;SDS011;26317;44.894;20.286;2022-10-16T16:34:23;9.38;;;7.60;;
40611;SDS011;26317;44.894;20.286;2022-10-16T16:37:00;10.02;;;7.70;;
40611;SDS011;26317;44.894;20.286;2022-10-16T16:39:42;12.80;;;7.88;;
40611;SDS011;26317;44.894;20.286;2022-10-16T16:42:19;18.95;;;8.07;;
40611;SDS011;26317;44.894;20.286;2022-10-16T16:44:56;14.60;;;7.63;;
40611;SDS011;26317;44.894;20.286;2022-10-16T16:47:29;18.80;;;8.60;;
40611;SDS011;26317;44.894;20.286;2022-10-16T16:50:09;14.07;;;8.60;;
40611;SDS011;26317;44.894;20.286;2022-10-16T16:52:46;10.70;;;8.07;;
40611;SDS011;26317;44.894;20.286;2022-10-16T16:55:26;11.38;;;7.53;;
40611;SDS011;26317;44.894;20.286;2022-10-16T16:58:13;14.40;;;9.38;;
40611;SDS011;26317;44.894;20.286;2022-10-16T17:00:50;12.77;;;7.97;;